Time,TemperatureF,DewpointF,PressureIn,WindDirection,WindDirectionDegrees,WindSpeedMPH,WindSpeedGustMPH,Humidity,HourlyPrecipIn,Conditions,Clouds,dailyrainin,SolarRadiationWatts/m^2,SoftwareType,DateUTC
2013-08-03 00:02:00,56.0,54.0,30.13,ENE,63,0.0,0.0,93,0.00,,,0.02,0.000000,,2013-08-03 07:02:00,
2013-08-03 00:22:00,56.0,54.0,30.14,ENE,60,0.0,0.0,93,0.00,,,0.02,0.000000,,2013-08-03 07:22:00,
2013-08-03 00:32:00,56.0,54.0,30.13,ENE,59,0.0,0.0,93,0.00,,,0.02,0.000000,,2013-08-03 07:32:00,
2013-08-03 00:43:00,56.0,54.0,30.13,NE,55,0.0,0.0,94,0.00,,,0.02,0.000000,,2013-08-03 07:43:00,
2013-08-03 00:52:00,56.0,54.0,30.13,NE,55,0.0,0.0,94,0.00,,,0.02,0.000000,,2013-08-03 07:52:00,
2013-08-03 01:02:00,56.0,54.0,30.13,East,88,0.0,0.0,94,0.00,,,0.02,0.000000,,2013-08-03 08:02:00,
2013-08-03 01:11:00,56.0,54.0,30.13,East,88,0.0,0.0,94,0.00,,,0.02,0.000000,,2013-08-03 08:11:00,
2013-08-03 01:22:00,56.0,54.0,30.13,East,87,0.0,0.0,94,0.00,,,0.02,0.000000,,2013-08-03 08:22:00,
2013-08-03 01:43:00,55.0,53.0,30.12,East,95,0.0,0.0,94,0.00,,,0.02,0.000000,,2013-08-03 08:43:00,
2013-08-03 01:52:00,55.0,53.0,30.12,East,95,0.0,0.0,94,0.00,,,0.02,0.000000,,2013-08-03 08:52:00,
2013-08-03 02:02:00,55.0,53.0,30.12,ESE,104,0.0,0.0,94,0.00,,,0.02,0.000000,,2013-08-03 09:02:00,
2013-08-03 02:11:00,55.0,53.0,30.12,ESE,104,0.0,0.0,94,0.00,,,0.02,0.000000,,2013-08-03 09:11:00,
2013-08-03 02:22:00,55.0,53.0,30.12,East,82,4.0,8.0,94,0.00,,,0.02,0.000000,,2013-08-03 09:22:00,
2013-08-03 02:32:00,55.0,53.0,30.12,East,82,4.0,8.0,94,0.00,,,0.02,0.000000,,2013-08-03 09:32:00,
2013-08-03 02:43:00,55.0,53.0,30.12,East,92,1.0,4.0,94,0.00,,,0.01,0.000000,,2013-08-03 09:43:00,
2013-08-03 02:53:00,55.0,53.0,30.12,East,92,1.0,4.0,94,0.00,,,0.01,0.000000,,2013-08-03 09:53:00,
2013-08-03 03:02:00,54.0,53.0,30.11,East,88,2.0,5.0,95,0.00,,,0.01,0.000000,,2013-08-03 10:02:00,
2013-08-03 03:22:00,54.0,53.0,30.11,East,98,3.0,6.0,95,0.00,,,0.01,0.000000,,2013-08-03 10:22:00,
2013-08-03 03:32:00,54.0,53.0,30.12,SE,127,4.0,7.0,95,0.00,,,0.00,0.000000,,2013-08-03 10:32:00,
2013-08-03 03:42:00,54.0,53.0,30.11,ENE,77,3.0,7.0,95,0.00,,,0.00,0.000000,,2013-08-03 10:42:00,
2013-08-03 03:53:00,54.0,53.0,30.11,ENE,77,3.0,7.0,95,0.00,,,0.00,0.000000,,2013-08-03 10:53:00,
2013-08-03 04:02:00,54.0,53.0,30.12,ESE,110,4.0,8.0,95,0.00,,,0.00,0.000000,,2013-08-03 11:02:00,
2013-08-03 04:22:00,54.0,53.0,30.12,East,100,4.0,8.0,95,0.00,,,0.00,0.000000,,2013-08-03 11:22:00,
2013-08-03 04:43:00,54.0,53.0,30.12,ENE,70,2.0,6.0,95,0.00,,,0.00,0.000000,,2013-08-03 11:43:00,
2013-08-03 04:53:00,54.0,53.0,30.12,ENE,70,2.0,6.0,95,0.00,,,0.00,0.000000,,2013-08-03 11:53:00,
2013-08-03 05:02:00,53.0,52.0,30.11,ENE,71,3.0,8.0,95,0.00,,,0.00,0.000000,,2013-08-03 12:02:00,
2013-08-03 05:12:00,53.0,52.0,30.12,East,98,3.0,7.0,95,0.00,,,0.00,0.000000,,2013-08-03 12:12:00,
2013-08-03 05:22:00,53.0,52.0,30.12,East,98,3.0,7.0,95,0.00,,,0.00,0.000000,,2013-08-03 12:22:00,
2013-08-03 05:32:00,53.0,52.0,30.11,ENE,63,2.0,6.0,95,0.00,,,0.00,0.000000,,2013-08-03 12:32:00,
2013-08-03 05:43:00,53.0,52.0,30.11,ENE,74,4.0,8.0,95,0.00,,,0.00,0.000000,,2013-08-03 12:43:00,
2013-08-03 05:52:00,53.0,52.0,30.11,ENE,74,4.0,8.0,95,0.00,,,0.00,0.000000,,2013-08-03 12:52:00,
2013-08-03 06:01:00,53.0,52.0,30.11,ENE,66,5.0,9.0,95,0.00,,,0.00,0.000000,,2013-08-03 13:01:00,
2013-08-03 06:11:00,53.0,52.0,30.11,ENE,66,5.0,9.0,95,0.00,,,0.00,0.000000,,2013-08-03 13:11:00,
2013-08-03 06:22:00,53.0,52.0,30.12,East,92,5.0,7.0,96,0.00,,,0.00,0.000000,,2013-08-03 13:22:00,
2013-08-03 06:32:00,53.0,52.0,30.12,East,92,5.0,7.0,96,0.00,,,0.00,0.000000,,2013-08-03 13:32:00,
2013-08-03 06:43:00,53.0,52.0,30.12,ENE,65,3.0,8.0,96,0.00,,,0.00,12.000000,,2013-08-03 13:43:00,
2013-08-03 06:52:00,53.0,52.0,30.12,ENE,65,3.0,8.0,96,0.00,,,0.00,12.000000,,2013-08-03 13:52:00,
2013-08-03 07:02:00,53.0,52.0,30.12,East,91,4.0,7.0,96,0.00,,,0.00,23.000000,,2013-08-03 14:02:00,
2013-08-03 07:11:00,53.0,52.0,30.12,East,91,4.0,7.0,96,0.00,,,0.00,23.000000,,2013-08-03 14:11:00,
2013-08-03 07:22:00,53.0,52.0,30.13,ENE,65,3.0,8.0,96,0.00,,,0.00,37.000000,,2013-08-03 14:22:00,
2013-08-03 07:32:00,53.0,52.0,30.12,East,96,5.0,8.0,96,0.00,,,0.00,54.000000,,2013-08-03 14:32:00,
2013-08-03 07:42:00,53.0,52.0,30.12,East,96,5.0,8.0,96,0.00,,,0.00,54.000000,,2013-08-03 14:42:00,
2013-08-03 07:52:00,53.0,52.0,30.13,ENE,61,5.0,10.0,96,0.00,,,0.00,70.000000,,2013-08-03 14:52:00,
2013-08-03 08:02:00,53.0,52.0,30.13,ENE,61,5.0,10.0,96,0.00,,,0.00,70.000000,,2013-08-03 15:02:00,
2013-08-03 08:22:00,54.0,53.0,30.12,East,82,3.0,7.0,96,0.00,,,0.00,158.000000,,2013-08-03 15:22:00,
2013-08-03 08:32:00,55.0,54.0,30.13,East,92,4.0,8.0,96,0.00,,,0.00,230.000000,,2013-08-03 15:32:00,
2013-08-03 08:43:00,56.0,55.0,30.13,ENE,76,3.0,9.0,96,0.00,,,0.00,153.000000,,2013-08-03 15:43:00,
2013-08-03 08:53:00,56.0,55.0,30.13,ENE,76,3.0,9.0,96,0.00,,,0.00,153.000000,,2013-08-03 15:53:00,
2013-08-03 09:02:00,56.0,55.0,30.13,ENE,67,2.0,9.0,96,0.00,,,0.00,197.000000,,2013-08-03 16:02:00,
2013-08-03 09:11:00,56.0,55.0,30.13,ENE,67,2.0,9.0,96,0.00,,,0.00,197.000000,,2013-08-03 16:11:00,
2013-08-03 09:22:00,56.0,55.0,30.13,ENE,71,2.0,6.0,96,0.00,,,0.00,151.000000,,2013-08-03 16:22:00,
2013-08-03 09:33:00,58.0,57.0,30.13,East,90,1.0,3.0,95,0.00,,,0.00,188.000000,,2013-08-03 16:33:00,
2013-08-03 09:53:00,60.0,58.0,30.13,SSW,210,0.0,3.0,94,0.00,,,0.00,508.000000,,2013-08-03 16:53:00,
2013-08-03 10:02:00,61.0,59.0,30.12,West,275,2.0,4.0,93,0.00,,,0.00,512.000000,,2013-08-03 17:02:00,
2013-08-03 10:22:00,61.0,58.0,30.13,NW,309,2.0,4.0,91,0.00,,,0.00,585.000000,,2013-08-03 17:22:00,
2013-08-03 10:32:00,60.0,57.0,30.13,NW,311,3.0,7.0,91,0.00,,,0.00,383.000000,,2013-08-03 17:32:00,
2013-08-03 10:43:00,62.0,59.0,30.12,NNW,342,2.0,5.0,91,0.00,,,0.00,642.000000,,2013-08-03 17:43:00,
2013-08-03 10:52:00,62.0,59.0,30.12,NNW,342,2.0,5.0,91,0.00,,,0.00,642.000000,,2013-08-03 17:52:00,
2013-08-03 11:02:00,61.0,58.0,30.12,WNW,294,3.0,8.0,91,0.00,,,0.00,309.000000,,2013-08-03 18:02:00,
2013-08-03 11:12:00,61.0,58.0,30.12,WNW,294,3.0,8.0,91,0.00,,,0.00,309.000000,,2013-08-03 18:12:00,
2013-08-03 11:21:00,62.0,59.0,30.12,NNW,341,3.0,7.0,90,0.00,,,0.00,705.000000,,2013-08-03 18:21:00,
2013-08-03 11:32:00,62.0,59.0,30.12,NNW,341,3.0,7.0,90,0.00,,,0.00,705.000000,,2013-08-03 18:32:00,
2013-08-03 11:42:00,62.0,59.0,30.12,NW,316,3.0,6.0,89,0.00,,,0.00,733.000000,,2013-08-03 18:42:00,
2013-08-03 11:53:00,62.0,59.0,30.12,WSW,243,2.0,6.0,89,0.00,,,0.00,642.000000,,2013-08-03 18:53:00,
2013-08-03 12:01:00,64.0,60.0,30.12,WNW,296,2.0,8.0,88,0.00,,,0.00,819.000000,,2013-08-03 19:01:00,
2013-08-03 12:12:00,64.0,60.0,30.12,WNW,296,2.0,8.0,88,0.00,,,0.00,819.000000,,2013-08-03 19:12:00,
2013-08-03 12:22:00,63.0,59.0,30.11,NW,316,3.0,7.0,88,0.00,,,0.00,886.000000,,2013-08-03 19:22:00,
2013-08-03 12:32:00,64.0,60.0,30.11,South,190,1.0,7.0,88,0.00,,,0.00,353.000000,,2013-08-03 19:32:00,
2013-08-03 12:52:00,64.0,60.0,30.11,West,262,3.0,11.0,86,0.00,,,0.00,877.000000,,2013-08-03 19:52:00,
2013-08-03 13:12:00,65.0,60.0,30.10,West,273,4.0,8.0,84,0.00,,,0.00,837.000000,,2013-08-03 20:12:00,
2013-08-03 13:22:00,64.0,58.0,30.10,West,263,3.0,11.0,82,0.00,,,0.00,840.000000,,2013-08-03 20:22:00,
2013-08-03 13:42:00,65.0,59.0,30.11,WSW,257,2.0,8.0,80,0.00,,,0.00,861.000000,,2013-08-03 20:42:00,
2013-08-03 13:52:00,65.0,59.0,30.11,WSW,257,2.0,8.0,80,0.00,,,0.00,861.000000,,2013-08-03 20:52:00,
2013-08-03 14:01:00,66.0,59.0,30.11,NW,320,2.0,8.0,79,0.00,,,0.00,925.000000,,2013-08-03 21:01:00,
2013-08-03 14:12:00,65.0,59.0,30.11,SSW,207,3.0,10.0,81,0.00,,,0.00,849.000000,,2013-08-03 21:12:00,
2013-08-03 14:22:00,65.0,59.0,30.11,SSW,207,3.0,10.0,81,0.00,,,0.00,849.000000,,2013-08-03 21:22:00,
2013-08-03 14:32:00,66.0,59.0,30.10,WNW,302,4.0,10.0,79,0.00,,,0.00,888.000000,,2013-08-03 21:32:00,
2013-08-03 14:52:00,67.0,60.0,30.09,SW,215,3.0,9.0,79,0.00,,,0.00,902.000000,,2013-08-03 21:52:00,
2013-08-03 15:01:00,66.0,59.0,30.09,ENE,62,4.0,8.0,77,0.00,,,0.00,877.000000,,2013-08-03 22:01:00,
2013-08-03 15:11:00,66.0,59.0,30.09,ENE,62,4.0,8.0,77,0.00,,,0.00,877.000000,,2013-08-03 22:11:00,
2013-08-03 15:22:00,67.0,60.0,30.09,NE,36,2.0,9.0,77,0.00,,,0.00,800.000000,,2013-08-03 22:22:00,
2013-08-03 15:32:00,65.0,59.0,30.09,West,263,1.0,9.0,82,0.00,,,0.00,802.000000,,2013-08-03 22:32:00,
2013-08-03 15:42:00,66.0,59.0,30.09,SSW,211,3.0,9.0,79,0.00,,,0.00,805.000000,,2013-08-03 22:42:00,
2013-08-03 15:52:00,66.0,59.0,30.09,SSW,211,3.0,9.0,79,0.00,,,0.00,805.000000,,2013-08-03 22:52:00,
2013-08-03 16:01:00,65.0,58.0,30.09,NW,304,2.0,6.0,79,0.00,,,0.00,756.000000,,2013-08-03 23:01:00,
2013-08-03 16:11:00,65.0,58.0,30.09,NW,304,2.0,6.0,79,0.00,,,0.00,756.000000,,2013-08-03 23:11:00,
2013-08-03 16:22:00,65.0,59.0,30.08,SSW,202,2.0,7.0,80,0.00,,,0.00,661.000000,,2013-08-03 23:22:00,
2013-08-03 16:32:00,65.0,59.0,30.08,WNW,286,3.0,10.0,81,0.00,,,0.00,645.000000,,2013-08-03 23:32:00,
2013-08-03 16:42:00,65.0,59.0,30.08,WNW,286,3.0,10.0,81,0.00,,,0.00,645.000000,,2013-08-03 23:42:00,
2013-08-03 16:52:00,64.0,58.0,30.07,SW,235,4.0,11.0,81,0.00,,,0.00,663.000000,,2013-08-03 23:52:00,
2013-08-03 17:01:00,64.0,58.0,30.07,North,350,1.0,10.0,82,0.00,,,0.00,626.000000,,2013-08-04 00:01:00,
2013-08-03 17:11:00,64.0,58.0,30.07,North,350,1.0,10.0,82,0.00,,,0.00,626.000000,,2013-08-04 00:11:00,
2013-08-03 17:22:00,64.0,58.0,30.07,SSW,210,2.0,7.0,82,0.00,,,0.00,566.000000,,2013-08-04 00:22:00,
2013-08-03 17:32:00,64.0,59.0,30.06,West,273,2.0,8.0,83,0.00,,,0.00,543.000000,,2013-08-04 00:32:00,
2013-08-03 17:42:00,64.0,59.0,30.06,West,273,2.0,8.0,83,0.00,,,0.00,543.000000,,2013-08-04 00:42:00,
2013-08-03 17:53:00,64.0,59.0,30.06,West,273,2.0,8.0,83,0.00,,,0.00,543.000000,,2013-08-04 00:53:00,
2013-08-03 18:11:00,62.0,57.0,30.06,SSW,200,4.0,8.0,83,0.00,,,0.00,492.000000,,2013-08-04 01:11:00,
2013-08-03 18:22:00,62.0,57.0,30.06,SSW,200,4.0,8.0,83,0.00,,,0.00,492.000000,,2013-08-04 01:22:00,
2013-08-03 18:32:00,62.0,57.0,30.06,SSW,193,3.0,11.0,84,0.00,,,0.00,132.000000,,2013-08-04 01:32:00,
2013-08-03 18:42:00,62.0,57.0,30.06,SSW,193,3.0,11.0,84,0.00,,,0.00,132.000000,,2013-08-04 01:42:00,
2013-08-03 18:52:00,62.0,57.0,30.05,West,269,3.0,8.0,85,0.00,,,0.00,51.000000,,2013-08-04 01:52:00,
2013-08-03 19:02:00,62.0,57.0,30.05,West,269,3.0,8.0,85,0.00,,,0.00,51.000000,,2013-08-04 02:02:00,
2013-08-03 19:11:00,62.0,57.0,30.05,West,269,3.0,8.0,85,0.00,,,0.00,51.000000,,2013-08-04 02:11:00,
2013-08-03 19:21:00,61.0,57.0,30.04,SSW,202,3.0,7.0,86,0.00,,,0.00,46.000000,,2013-08-04 02:21:00,
2013-08-03 19:32:00,61.0,57.0,30.04,SSW,202,3.0,7.0,86,0.00,,,0.00,46.000000,,2013-08-04 02:32:00,
2013-08-03 19:42:00,61.0,57.0,30.04,SSW,202,3.0,7.0,86,0.00,,,0.00,46.000000,,2013-08-04 02:42:00,
2013-08-03 19:52:00,61.0,57.0,30.04,SSW,206,2.0,7.0,87,0.00,,,0.00,84.000000,,2013-08-04 02:52:00,
2013-08-03 20:01:00,61.0,57.0,30.04,SSW,206,2.0,7.0,87,0.00,,,0.00,84.000000,,2013-08-04 03:01:00,
2013-08-03 20:11:00,60.0,56.0,30.04,SW,217,5.0,15.0,87,0.00,,,0.00,91.000000,,2013-08-04 03:11:00,
2013-08-03 20:21:00,60.0,56.0,30.04,SW,217,5.0,15.0,87,0.00,,,0.00,91.000000,,2013-08-04 03:21:00,
2013-08-03 20:32:00,60.0,56.0,30.05,NE,44,2.0,12.0,88,0.00,,,0.00,54.000000,,2013-08-04 03:32:00,
2013-08-03 20:42:00,60.0,56.0,30.05,NE,44,2.0,12.0,88,0.00,,,0.00,54.000000,,2013-08-04 03:42:00,
2013-08-03 20:52:00,60.0,56.0,30.05,NE,44,2.0,12.0,88,0.00,,,0.00,54.000000,,2013-08-04 03:52:00,
2013-08-03 21:02:00,60.0,56.0,30.05,NE,44,2.0,12.0,88,0.00,,,0.00,54.000000,,2013-08-04 04:02:00,
2013-08-03 21:11:00,60.0,56.0,30.05,NE,44,2.0,12.0,88,0.00,,,0.00,54.000000,,2013-08-04 04:11:00,
2013-08-03 21:42:00,59.0,56.0,30.05,SSE,158,0.0,6.0,90,0.00,,,0.00,0.000000,,2013-08-04 04:42:00,
2013-08-03 21:52:00,59.0,56.0,30.05,SSE,158,0.0,6.0,90,0.00,,,0.00,0.000000,,2013-08-04 04:52:00,
2013-08-03 22:02:00,59.0,56.0,30.05,SSE,158,0.0,6.0,90,0.00,,,0.00,0.000000,,2013-08-04 05:02:00,
2013-08-03 22:12:00,58.0,55.0,30.06,SW,234,0.0,4.0,91,0.00,,,0.00,0.000000,,2013-08-04 05:12:00,
2013-08-03 22:21:00,58.0,55.0,30.06,SW,234,0.0,4.0,91,0.00,,,0.00,0.000000,,2013-08-04 05:21:00,
2013-08-03 22:32:00,58.0,55.0,30.06,SW,234,0.0,4.0,91,0.00,,,0.00,0.000000,,2013-08-04 05:32:00,
2013-08-03 22:42:00,58.0,55.0,30.06,SW,234,0.0,4.0,91,0.00,,,0.00,0.000000,,2013-08-04 05:42:00,
2013-08-03 22:52:00,58.0,56.0,30.05,NW,306,0.0,0.0,92,0.00,,,0.00,0.000000,,2013-08-04 05:52:00,
2013-08-03 23:01:00,58.0,56.0,30.05,NW,306,0.0,0.0,92,0.00,,,0.00,0.000000,,2013-08-04 06:01:00,
2013-08-03 23:12:00,58.0,56.0,30.06,SSE,165,0.0,5.0,92,0.00,,,0.00,0.000000,,2013-08-04 06:12:00,
2013-08-03 23:22:00,58.0,56.0,30.06,SSE,165,0.0,5.0,92,0.00,,,0.00,0.000000,,2013-08-04 06:22:00,
2013-08-03 23:32:00,58.0,56.0,30.05,SW,217,0.0,1.0,92,0.00,,,0.00,0.000000,,2013-08-04 06:32:00,
2013-08-03 23:43:00,58.0,56.0,30.05,SW,217,0.0,1.0,92,0.00,,,0.00,0.000000,,2013-08-04 06:43:00,
2013-08-03 23:52:00,57.0,55.0,30.05,SW,217,0.0,0.0,92,0.00,,,0.00,0.000000,,2013-08-04 06:52:00,